Index of /manuals/Inspection Programs/AAIP/206L Series/Rev 7/Section C/

NameLast ModifiedSize
UpParent Directory
DirectoryArchive2023-06-21 17:03-
[CMP]C Inspections.zip2023-06-21 16:53 454k
FileC0020 300 Hr - 12 Mon.doc2023-06-21 16:53 154k
FileC0030 300 Hr - 12 Mon.doc2023-06-21 16:53 243k
FileC0040 300 Hr - 12 Mon.doc2023-06-21 16:53 164k
FileC0060 300 Hr - 12 Mon.doc2023-06-21 16:53 404k
FileC0100 - 100 Hour.docx2023-06-21 16:53 45k
FileC0100 100 Hr.docx2023-06-21 16:53 35k
FileC0110 - 100 Hour NVG.docx2023-06-21 16:53 37k
FileC0120 12 Mon (Repaired).doc2023-06-21 16:53 334k
FileC0301 - 300 Hr - 12 Mon.doc2023-06-21 16:53 171k
FileC0301 300 Hr - 12 Mon.doc2023-06-21 16:53 171k
FileC0302 - 300 Hr - 12 Mon.doc2023-06-21 16:53 149k
FileC0302 300 Hr - 12 Mon.doc2023-06-21 16:53 149k
FileC0303 - 300 Hr - 12 Mon.doc2023-06-21 16:53 375k
FileC0360 - 36 Mon.doc2023-06-21 16:53 111k
FileC0360 36 Mon.doc2023-06-21 16:53 111k
FileC0550 - 500 Hr - 180 Day.doc2023-06-21 16:53 146k
FileC0550 - 500 Hr - 180 Day.pdf2023-06-21 16:53 142k
FileC0550 - 500 Hr - 6 Mon.doc2023-06-21 16:53 146k
FileC0550 500 Hr - 6 Mon.doc2023-06-21 16:53 146k
FileC1700 - 12 Mon.docx2023-06-21 16:53 86k
FileC1700 - 12 Mon.pdf2023-06-21 16:53 143k
FileC1710 - 12 Mon NVG.docx2023-06-21 16:53 137k
FileC1710 - 12 Mon NVG.pdf2023-06-21 16:53 111k
FileICA-206004-4 Rev C 080811 NVG.pdf2023-06-21 16:53 453k
Proudly Served by LiteSpeed Web Server at www.mhi.rotor-apps.com Port 443